LNI692 WIII-WARR
Flight info
| Callsign | LNI692 |
|---|---|
| Flight time | 1h 13m |
| Altitude | 35000 |
| Route | CA T3 BA |
| Aircraft | B739/M-SDE2E3FGHIRWXY/LB1 |
Departure
| Time | 2026-05-01 07:40 |
|---|---|
| Airport | Soekarno-Hatta International Airport (WIII) |
Arrival
| Time | 2026-05-01 08:53 |
|---|---|
| Airport | Juanda International Airport (WARR) |
| Time | Latitude | Longitude | Altitude | Speed | Heading |
|---|---|---|---|---|---|
| 2026-05-01 07:37 | -6.14239 | 106.64396 | 40 ft | 0 kts | 71° |
| 2026-05-01 07:39 | -6.14233 | 106.64413 | 39 ft | 15 kts | 70° |
| 2026-05-01 07:39 | -6.13770 | 106.65574 | 36 ft | 154 kts | 68° |
| 2026-05-01 07:40 | -6.13333 | 106.66715 | 249 ft | 185 kts | 67° |
| 2026-05-01 07:40 | -6.12874 | 106.67894 | 1017 ft | 180 kts | 68° |
| 2026-05-01 07:40 | -6.12397 | 106.69076 | 1587 ft | 191 kts | 67° |
| 2026-05-01 07:40 | -6.11872 | 106.70392 | 1793 ft | 214 kts | 67° |
| 2026-05-01 07:41 | -6.11284 | 106.71847 | 2021 ft | 232 kts | 68° |
| 2026-05-01 07:41 | -6.10657 | 106.73399 | 2348 ft | 246 kts | 71° |
| 2026-05-01 07:41 | -6.10431 | 106.76802 | 3891 ft | 246 kts | 91° |
| 2026-05-01 07:42 | -6.10411 | 106.78505 | 4605 ft | 248 kts | 91° |
| 2026-05-01 07:42 | -6.10384 | 106.80244 | 5345 ft | 246 kts | 90° |
| 2026-05-01 07:42 | -6.10352 | 106.81990 | 5972 ft | 253 kts | 91° |
| 2026-05-01 07:42 | -6.10313 | 106.83791 | 6445 ft | 265 kts | 91° |
| 2026-05-01 07:43 | -6.10256 | 106.85658 | 7037 ft | 269 kts | 90° |
| 2026-05-01 07:43 | -6.10208 | 106.87510 | 7782 ft | 268 kts | 90° |
| 2026-05-01 07:43 | -6.10127 | 106.91378 | 8861 ft | 284 kts | 90° |
| 2026-05-01 07:44 | -6.10028 | 106.95377 | 10200 ft | 289 kts | 90° |
| 2026-05-01 07:44 | -6.09927 | 106.99465 | 11410 ft | 295 kts | 89° |
| 2026-05-01 07:45 | -6.09989 | 107.01521 | 12028 ft | 297 kts | 103° |
| 2026-05-01 07:45 | -6.10823 | 107.03384 | 12552 ft | 300 kts | 128° |
| 2026-05-01 07:45 | -6.12399 | 107.04830 | 12765 ft | 318 kts | 150° |
| 2026-05-01 07:45 | -6.14513 | 107.05716 | 12941 ft | 336 kts | 160° |
| 2026-05-01 07:46 | -6.16769 | 107.06483 | 13331 ft | 344 kts | 160° |
| 2026-05-01 07:46 | -6.19030 | 107.07226 | 13838 ft | 348 kts | 161° |
| 2026-05-01 07:46 | -6.23682 | 107.08779 | 14779 ft | 356 kts | 160° |
| 2026-05-01 07:47 | -6.26046 | 107.09582 | 15267 ft | 359 kts | 160° |
| 2026-05-01 07:47 | -6.28425 | 107.10397 | 15741 ft | 362 kts | 160° |
| 2026-05-01 07:47 | -6.30817 | 107.11221 | 16202 ft | 365 kts | 160° |
| 2026-05-01 07:47 | -6.33205 | 107.12044 | 16671 ft | 368 kts | 160° |
| 2026-05-01 07:48 | -6.38105 | 107.13733 | 17593 ft | 375 kts | 160° |
| 2026-05-01 07:48 | -6.40543 | 107.14693 | 18014 ft | 377 kts | 148° |
| 2026-05-01 07:48 | -6.42541 | 107.16372 | 18386 ft | 376 kts | 128° |
| 2026-05-01 07:49 | -6.43915 | 107.18599 | 18794 ft | 375 kts | 116° |
| 2026-05-01 07:49 | -6.46190 | 107.23332 | 19548 ft | 380 kts | 114° |
| 2026-05-01 07:49 | -6.47330 | 107.25743 | 19915 ft | 383 kts | 114° |
| 2026-05-01 07:50 | -6.48491 | 107.28174 | 20288 ft | 385 kts | 115° |
| 2026-05-01 07:50 | -6.50848 | 107.33043 | 21023 ft | 389 kts | 115° |
| 2026-05-01 07:50 | -6.52045 | 107.35502 | 21377 ft | 392 kts | 115° |
| 2026-05-01 07:51 | -6.53249 | 107.37975 | 21727 ft | 394 kts | 115° |
| 2026-05-01 07:51 | -6.54445 | 107.40429 | 22071 ft | 397 kts | 115° |
| 2026-05-01 07:51 | -6.55669 | 107.42937 | 22362 ft | 400 kts | 115° |
| 2026-05-01 07:52 | -6.57188 | 107.48287 | 23024 ft | 400 kts | 95° |
| 2026-05-01 07:52 | -6.57483 | 107.51073 | 23347 ft | 402 kts | 95° |
| 2026-05-01 07:52 | -6.57783 | 107.53854 | 23594 ft | 405 kts | 95° |
| 2026-05-01 07:53 | -6.58423 | 107.59512 | 24166 ft | 408 kts | 95° |
| 2026-05-01 07:53 | -6.58756 | 107.62358 | 24445 ft | 409 kts | 95° |
| 2026-05-01 07:53 | -6.59095 | 107.65213 | 24706 ft | 411 kts | 96° |
| 2026-05-01 07:53 | -6.59431 | 107.68037 | 24943 ft | 413 kts | 96° |
| 2026-05-01 07:54 | -6.60119 | 107.73809 | 25464 ft | 416 kts | 95° |
| 2026-05-01 07:55 | -6.61162 | 107.82585 | 26145 ft | 423 kts | 95° |
| 2026-05-01 07:55 | -6.61742 | 107.87494 | 26625 ft | 424 kts | 95° |
| 2026-05-01 07:56 | -6.62785 | 107.96275 | 27619 ft | 422 kts | 95° |
| 2026-05-01 07:56 | -6.63484 | 108.02140 | 28314 ft | 421 kts | 96° |
| 2026-05-01 07:57 | -6.63832 | 108.05070 | 28629 ft | 421 kts | 95° |
| 2026-05-01 07:57 | -6.64518 | 108.10889 | 29259 ft | 422 kts | 96° |
| 2026-05-01 07:58 | -6.65207 | 108.16809 | 29741 ft | 427 kts | 95° |
| 2026-05-01 07:58 | -6.65910 | 108.22730 | 30382 ft | 424 kts | 96° |
| 2026-05-01 07:59 | -6.66596 | 108.28567 | 31092 ft | 420 kts | 96° |
| 2026-05-01 07:59 | -6.67280 | 108.34396 | 31729 ft | 417 kts | 95° |
| 2026-05-01 08:00 | -6.68637 | 108.45988 | 32538 ft | 424 kts | 96° |
| 2026-05-01 08:01 | -6.69677 | 108.54884 | 33289 ft | 424 kts | 96° |
| 2026-05-01 08:01 | -6.70036 | 108.57828 | 33519 ft | 424 kts | 97° |
| 2026-05-01 08:01 | -6.70465 | 108.60760 | 33798 ft | 423 kts | 98° |
| 2026-05-01 08:02 | -6.71396 | 108.66575 | 34143 ft | 425 kts | 98° |
| 2026-05-01 08:03 | -6.72803 | 108.75456 | 34408 ft | 433 kts | 97° |
| 2026-05-01 08:03 | -6.73267 | 108.78451 | 34604 ft | 432 kts | 98° |
| 2026-05-01 08:03 | -6.74193 | 108.84469 | 34816 ft | 434 kts | 98° |
| 2026-05-01 08:04 | -6.76044 | 108.96545 | 34844 ft | 442 kts | 98° |
| 2026-05-01 08:05 | -6.77451 | 109.05750 | 34838 ft | 449 kts | 98° |
| 2026-05-01 08:06 | -6.78887 | 109.15143 | 34838 ft | 455 kts | 98° |
| 2026-05-01 08:07 | -6.80820 | 109.27814 | 34834 ft | 462 kts | 98° |
| 2026-05-01 08:08 | -6.82289 | 109.37459 | 34829 ft | 466 kts | 98° |
| 2026-05-01 08:09 | -6.84252 | 109.50360 | 34820 ft | 467 kts | 98° |
| 2026-05-01 08:09 | -6.85232 | 109.56814 | 34825 ft | 466 kts | 98° |
| 2026-05-01 08:10 | -6.87186 | 109.69696 | 34849 ft | 464 kts | 98° |
| 2026-05-01 08:11 | -6.89118 | 109.82467 | 34847 ft | 462 kts | 98° |
| 2026-05-01 08:12 | -6.90566 | 109.92054 | 34848 ft | 461 kts | 98° |
| 2026-05-01 08:13 | -6.92013 | 110.01651 | 34843 ft | 461 kts | 98° |
| 2026-05-01 08:13 | -6.93455 | 110.11215 | 34810 ft | 462 kts | 98° |
| 2026-05-01 08:14 | -6.94418 | 110.17628 | 34800 ft | 463 kts | 97° |
| 2026-05-01 08:14 | -6.95378 | 110.24023 | 34781 ft | 464 kts | 97° |
| 2026-05-01 08:15 | -6.96826 | 110.33686 | 34776 ft | 464 kts | 97° |
| 2026-05-01 08:16 | -6.97635 | 110.40090 | 34769 ft | 463 kts | 91° |
| 2026-05-01 08:16 | -6.97771 | 110.46588 | 34773 ft | 463 kts | 89° |
| 2026-05-01 08:17 | -6.97802 | 110.53038 | 34782 ft | 463 kts | 89° |
| 2026-05-01 08:17 | -6.97833 | 110.56307 | 34391 ft | 470 kts | 89° |
| 2026-05-01 08:17 | -6.97877 | 110.59594 | 33944 ft | 466 kts | 89° |
| 2026-05-01 08:17 | -6.97930 | 110.62849 | 33469 ft | 462 kts | 90° |
| 2026-05-01 08:18 | -6.97987 | 110.66081 | 32970 ft | 460 kts | 90° |
| 2026-05-01 08:18 | -6.98103 | 110.72511 | 32003 ft | 458 kts | 90° |
| 2026-05-01 08:19 | -6.98222 | 110.78883 | 31079 ft | 457 kts | 91° |
| 2026-05-01 08:19 | -6.98289 | 110.82082 | 30625 ft | 458 kts | 91° |
| 2026-05-01 08:19 | -6.98351 | 110.85306 | 30182 ft | 461 kts | 91° |
| 2026-05-01 08:19 | -6.98411 | 110.88549 | 29716 ft | 465 kts | 91° |
| 2026-05-01 08:20 | -6.98468 | 110.91808 | 29166 ft | 466 kts | 91° |
| 2026-05-01 08:20 | -6.98523 | 110.95054 | 28641 ft | 467 kts | 91° |
| 2026-05-01 08:20 | -6.98578 | 110.98335 | 28107 ft | 468 kts | 91° |
| 2026-05-01 08:20 | -6.98633 | 111.01628 | 27593 ft | 469 kts | 91° |
| 2026-05-01 08:21 | -6.98686 | 111.04892 | 27042 ft | 464 kts | 91° |
| 2026-05-01 08:21 | -6.98738 | 111.08114 | 26520 ft | 457 kts | 91° |
| 2026-05-01 08:21 | -6.98789 | 111.11266 | 26006 ft | 454 kts | 91° |
| 2026-05-01 08:21 | -6.98841 | 111.14471 | 25499 ft | 452 kts | 91° |
| 2026-05-01 08:22 | -6.98891 | 111.17624 | 25058 ft | 449 kts | 91° |
| 2026-05-01 08:22 | -6.98941 | 111.20739 | 24953 ft | 452 kts | 91° |
| 2026-05-01 08:22 | -6.98991 | 111.23908 | 24851 ft | 449 kts | 91° |
| 2026-05-01 08:22 | -6.99040 | 111.27061 | 24825 ft | 449 kts | 91° |
| 2026-05-01 08:23 | -6.99088 | 111.30131 | 24811 ft | 438 kts | 91° |
| 2026-05-01 08:23 | -6.99135 | 111.33185 | 24616 ft | 436 kts | 91° |
| 2026-05-01 08:23 | -6.99182 | 111.36249 | 24144 ft | 436 kts | 91° |
| 2026-05-01 08:23 | -6.99230 | 111.39300 | 23715 ft | 432 kts | 91° |
| 2026-05-01 08:24 | -6.99345 | 111.42283 | 23262 ft | 429 kts | 97° |
| 2026-05-01 08:24 | -7.00003 | 111.45199 | 22758 ft | 424 kts | 105° |
| 2026-05-01 08:24 | -7.00843 | 111.48039 | 22253 ft | 421 kts | 106° |
| 2026-05-01 08:24 | -7.01702 | 111.50841 | 21757 ft | 417 kts | 106° |
| 2026-05-01 08:25 | -7.02546 | 111.53622 | 21270 ft | 414 kts | 106° |
| 2026-05-01 08:25 | -7.03369 | 111.56400 | 20789 ft | 411 kts | 105° |
| 2026-05-01 08:25 | -7.04169 | 111.59156 | 20320 ft | 408 kts | 105° |
| 2026-05-01 08:25 | -7.04943 | 111.61862 | 19862 ft | 405 kts | 105° |
| 2026-05-01 08:26 | -7.05718 | 111.64589 | 19403 ft | 403 kts | 105° |
| 2026-05-01 08:26 | -7.06485 | 111.67299 | 18996 ft | 400 kts | 105° |
| 2026-05-01 08:26 | -7.07242 | 111.69981 | 18592 ft | 397 kts | 105° |
| 2026-05-01 08:26 | -7.07994 | 111.72644 | 18202 ft | 394 kts | 105° |
| 2026-05-01 08:27 | -7.08742 | 111.75295 | 17759 ft | 391 kts | 105° |
| 2026-05-01 08:27 | -7.09477 | 111.77895 | 17653 ft | 381 kts | 105° |
| 2026-05-01 08:27 | -7.10200 | 111.80455 | 17541 ft | 384 kts | 105° |
| 2026-05-01 08:27 | -7.10933 | 111.83054 | 17452 ft | 388 kts | 105° |
| 2026-05-01 08:28 | -7.11675 | 111.85683 | 17375 ft | 390 kts | 105° |
| 2026-05-01 08:28 | -7.12417 | 111.88315 | 17299 ft | 390 kts | 105° |
| 2026-05-01 08:28 | -7.13160 | 111.90951 | 17210 ft | 389 kts | 105° |
| 2026-05-01 08:28 | -7.13888 | 111.93534 | 17145 ft | 388 kts | 105° |
| 2026-05-01 08:29 | -7.14629 | 111.96157 | 17064 ft | 388 kts | 105° |
| 2026-05-01 08:29 | -7.15404 | 111.98761 | 16991 ft | 387 kts | 110° |
| 2026-05-01 08:29 | -7.16702 | 112.01141 | 16921 ft | 387 kts | 122° |
| 2026-05-01 08:29 | -7.18104 | 112.03460 | 16845 ft | 386 kts | 119° |
| 2026-05-01 08:30 | -7.19403 | 112.05789 | 16771 ft | 385 kts | 118° |
| 2026-05-01 08:30 | -7.20698 | 112.08160 | 16671 ft | 386 kts | 118° |
| 2026-05-01 08:30 | -7.21992 | 112.10529 | 16537 ft | 386 kts | 118° |
| 2026-05-01 08:30 | -7.23303 | 112.12911 | 16392 ft | 388 kts | 118° |
| 2026-05-01 08:31 | -7.24624 | 112.15299 | 16186 ft | 389 kts | 119° |
| 2026-05-01 08:31 | -7.25929 | 112.17642 | 15997 ft | 385 kts | 119° |
| 2026-05-01 08:31 | -7.27235 | 112.19975 | 15788 ft | 380 kts | 119° |
| 2026-05-01 08:31 | -7.28533 | 112.22291 | 15574 ft | 378 kts | 119° |
| 2026-05-01 08:32 | -7.29827 | 112.24597 | 15361 ft | 378 kts | 119° |
| 2026-05-01 08:32 | -7.31124 | 112.26908 | 15124 ft | 378 kts | 119° |
| 2026-05-01 08:32 | -7.32421 | 112.29219 | 14901 ft | 378 kts | 119° |
| 2026-05-01 08:32 | -7.33714 | 112.31523 | 14681 ft | 378 kts | 119° |
| 2026-05-01 08:33 | -7.34990 | 112.33797 | 14449 ft | 377 kts | 119° |
| 2026-05-01 08:33 | -7.36275 | 112.36087 | 14215 ft | 371 kts | 119° |
| 2026-05-01 08:33 | -7.37528 | 112.38323 | 13984 ft | 361 kts | 119° |
| 2026-05-01 08:33 | -7.38752 | 112.40505 | 13745 ft | 352 kts | 119° |
| 2026-05-01 08:34 | -7.39931 | 112.42606 | 13522 ft | 344 kts | 120° |
| 2026-05-01 08:34 | -7.41096 | 112.44679 | 13241 ft | 334 kts | 120° |
| 2026-05-01 08:34 | -7.42216 | 112.46680 | 12982 ft | 320 kts | 120° |
| 2026-05-01 08:34 | -7.43293 | 112.48602 | 12706 ft | 308 kts | 120° |
| 2026-05-01 08:35 | -7.44334 | 112.50461 | 12452 ft | 299 kts | 120° |
| 2026-05-01 08:35 | -7.45340 | 112.52259 | 12212 ft | 298 kts | 120° |
| 2026-05-01 08:35 | -7.46362 | 112.54086 | 11980 ft | 301 kts | 120° |
| 2026-05-01 08:35 | -7.47393 | 112.55929 | 11766 ft | 304 kts | 120° |
| 2026-05-01 08:36 | -7.48444 | 112.57810 | 11530 ft | 308 kts | 119° |
| 2026-05-01 08:36 | -7.49486 | 112.59684 | 11273 ft | 305 kts | 119° |
| 2026-05-01 08:36 | -7.50515 | 112.61527 | 11031 ft | 299 kts | 120° |
| 2026-05-01 08:36 | -7.51189 | 112.62731 | 10871 ft | 296 kts | 120° |
| 2026-05-01 08:37 | -7.52517 | 112.65103 | 10551 ft | 289 kts | 120° |
| 2026-05-01 08:37 | -7.53174 | 112.66275 | 10395 ft | 286 kts | 120° |
| 2026-05-01 08:37 | -7.54141 | 112.68017 | 10153 ft | 282 kts | 117° |
| 2026-05-01 08:37 | -7.54727 | 112.69883 | 9910 ft | 277 kts | 101° |
| 2026-05-01 08:38 | -7.55061 | 112.71778 | 9730 ft | 273 kts | 101° |
| 2026-05-01 08:38 | -7.55395 | 112.73649 | 9522 ft | 269 kts | 101° |
| 2026-05-01 08:38 | -7.55741 | 112.75507 | 9322 ft | 268 kts | 101° |
| 2026-05-01 08:38 | -7.56092 | 112.77347 | 9120 ft | 267 kts | 102° |
| 2026-05-01 08:39 | -7.56446 | 112.79178 | 8933 ft | 265 kts | 102° |
| 2026-05-01 08:39 | -7.56797 | 112.80980 | 8745 ft | 264 kts | 102° |
| 2026-05-01 08:39 | -7.57151 | 112.82796 | 8540 ft | 263 kts | 102° |
| 2026-05-01 08:39 | -7.57507 | 112.84604 | 8344 ft | 262 kts | 102° |
| 2026-05-01 08:40 | -7.58213 | 112.88194 | 7955 ft | 260 kts | 102° |
| 2026-05-01 08:40 | -7.58557 | 112.89971 | 7752 ft | 257 kts | 102° |
| 2026-05-01 08:40 | -7.58906 | 112.91732 | 7571 ft | 256 kts | 102° |
| 2026-05-01 08:41 | -7.59249 | 112.93476 | 7385 ft | 256 kts | 102° |
| 2026-05-01 08:41 | -7.59595 | 112.95236 | 7196 ft | 255 kts | 102° |
| 2026-05-01 08:41 | -7.59941 | 112.96993 | 7013 ft | 255 kts | 103° |
| 2026-05-01 08:41 | -7.60285 | 112.98740 | 6828 ft | 255 kts | 103° |
| 2026-05-01 08:42 | -7.60628 | 113.00495 | 6645 ft | 255 kts | 103° |
| 2026-05-01 08:42 | -7.60965 | 113.02228 | 6464 ft | 255 kts | 103° |
| 2026-05-01 08:42 | -7.61308 | 113.03989 | 6284 ft | 255 kts | 103° |
| 2026-05-01 08:42 | -7.61648 | 113.05745 | 6098 ft | 255 kts | 103° |
| 2026-05-01 08:43 | -7.61989 | 113.07505 | 5900 ft | 256 kts | 103° |
| 2026-05-01 08:43 | -7.62332 | 113.09271 | 5704 ft | 256 kts | 102° |
| 2026-05-01 08:43 | -7.62675 | 113.11035 | 5516 ft | 256 kts | 103° |
| 2026-05-01 08:43 | -7.63014 | 113.12775 | 5315 ft | 254 kts | 103° |
| 2026-05-01 08:44 | -7.63236 | 113.14529 | 5091 ft | 252 kts | 86° |
| 2026-05-01 08:44 | -7.62640 | 113.16167 | 4907 ft | 251 kts | 54° |
| 2026-05-01 08:44 | -7.61309 | 113.17287 | 4763 ft | 251 kts | 24° |
| 2026-05-01 08:44 | -7.59597 | 113.17621 | 4674 ft | 255 kts | 355° |
| 2026-05-01 08:45 | -7.57927 | 113.17083 | 4578 ft | 259 kts | 327° |
| 2026-05-01 08:45 | -7.56505 | 113.15962 | 4469 ft | 260 kts | 317° |
| 2026-05-01 08:45 | -7.55186 | 113.14710 | 4356 ft | 261 kts | 315° |
| 2026-05-01 08:45 | -7.53876 | 113.13435 | 4163 ft | 263 kts | 315° |
| 2026-05-01 08:46 | -7.52551 | 113.12152 | 3901 ft | 262 kts | 316° |
| 2026-05-01 08:46 | -7.51251 | 113.10904 | 3658 ft | 260 kts | 316° |
| 2026-05-01 08:46 | -7.49949 | 113.09662 | 3533 ft | 251 kts | 316° |
| 2026-05-01 08:46 | -7.48686 | 113.08467 | 3528 ft | 248 kts | 317° |
| 2026-05-01 08:47 | -7.47444 | 113.07293 | 3477 ft | 240 kts | 316° |
| 2026-05-01 08:47 | -7.46236 | 113.06144 | 3482 ft | 238 kts | 317° |
| 2026-05-01 08:47 | -7.45035 | 113.05016 | 3446 ft | 230 kts | 316° |
| 2026-05-01 08:47 | -7.43909 | 113.03953 | 3460 ft | 214 kts | 316° |
| 2026-05-01 08:48 | -7.42902 | 113.02913 | 3449 ft | 211 kts | 301° |
| 2026-05-01 08:48 | -7.42371 | 113.01525 | 3327 ft | 215 kts | 286° |
| 2026-05-01 08:48 | -7.41890 | 113.00078 | 3136 ft | 219 kts | 288° |
| 2026-05-01 08:48 | -7.41376 | 112.98643 | 2968 ft | 216 kts | 289° |
| 2026-05-01 08:49 | -7.40902 | 112.97223 | 2795 ft | 208 kts | 280° |
| 2026-05-01 08:49 | -7.40729 | 112.95826 | 2628 ft | 200 kts | 276° |
| 2026-05-01 08:49 | -7.40519 | 112.94406 | 2472 ft | 206 kts | 278° |
| 2026-05-01 08:49 | -7.40296 | 112.92990 | 2303 ft | 203 kts | 277° |
| 2026-05-01 08:50 | -7.40081 | 112.91628 | 2132 ft | 195 kts | 278° |
| 2026-05-01 08:50 | -7.39885 | 112.90301 | 1945 ft | 188 kts | 275° |
| 2026-05-01 08:50 | -7.39687 | 112.89025 | 1713 ft | 179 kts | 281° |
| 2026-05-01 08:50 | -7.39457 | 112.87783 | 1567 ft | 176 kts | 279° |
| 2026-05-01 08:51 | -7.39262 | 112.86602 | 1278 ft | 163 kts | 278° |
| 2026-05-01 08:51 | -7.39083 | 112.85491 | 1087 ft | 163 kts | 278° |
| 2026-05-01 08:51 | -7.38901 | 112.84368 | 891 ft | 160 kts | 278° |
| 2026-05-01 08:51 | -7.38723 | 112.83281 | 721 ft | 158 kts | 277° |
| 2026-05-01 08:52 | -7.38543 | 112.82195 | 495 ft | 154 kts | 276° |
| 2026-05-01 08:52 | -7.38376 | 112.81144 | 267 ft | 148 kts | 278° |
| 2026-05-01 08:52 | -7.38214 | 112.80135 | 82 ft | 143 kts | 278° |
| 2026-05-01 08:52 | -7.38064 | 112.79199 | 11 ft | 121 kts | 279° |
| 2026-05-01 08:53 | -7.37956 | 112.78520 | 8 ft | 77 kts | 279° |
| 2026-05-01 08:53 | -7.37876 | 112.78182 | 7 ft | 40 kts | 299° |
| 2026-05-01 08:53 | -7.37789 | 112.78058 | 8 ft | 13 kts | 309° |
| 2026-05-01 08:53 | -7.37717 | 112.78030 | 10 ft | 12 kts | 43° |
| 2026-05-01 08:54 | -7.37711 | 112.78085 | 8 ft | 5 kts | 98° |
| 2026-05-01 08:54 | -7.37717 | 112.78122 | 8 ft | 5 kts | 99° |
| 2026-05-01 08:54 | -7.37723 | 112.78158 | 8 ft | 5 kts | 99° |
| 2026-05-01 08:54 | -7.37733 | 112.78217 | 8 ft | 12 kts | 99° |
| 2026-05-01 08:55 | -7.37748 | 112.78311 | 8 ft | 16 kts | 99° |
| 2026-05-01 08:55 | -7.37766 | 112.78428 | 8 ft | 17 kts | 99° |
| 2026-05-01 08:55 | -7.37786 | 112.78545 | 8 ft | 17 kts | 99° |
| 2026-05-01 08:55 | -7.37804 | 112.78657 | 8 ft | 17 kts | 99° |
| 2026-05-01 08:56 | -7.37823 | 112.78776 | 9 ft | 18 kts | 99° |
| 2026-05-01 08:56 | -7.37843 | 112.78906 | 8 ft | 19 kts | 99° |
| 2026-05-01 08:56 | -7.37864 | 112.79034 | 8 ft | 18 kts | 99° |
| 2026-05-01 08:56 | -7.37884 | 112.79159 | 8 ft | 18 kts | 99° |
| 2026-05-01 08:57 | -7.37903 | 112.79279 | 8 ft | 17 kts | 99° |
| 2026-05-01 08:57 | -7.37911 | 112.79391 | 8 ft | 16 kts | 69° |
| 2026-05-01 08:57 | -7.37822 | 112.79429 | 9 ft | 13 kts | 11° |
| 2026-05-01 08:57 | -7.37735 | 112.79445 | 8 ft | 12 kts | 9° |
| 2026-05-01 08:58 | -7.37651 | 112.79459 | 9 ft | 12 kts | 9° |
| 2026-05-01 08:58 | -7.37601 | 112.79467 | 8 ft | 2 kts | 9° |
| 2026-05-01 08:58 | -7.37594 | 112.79468 | 8 ft | 1 kts | 9° |
| 2026-05-01 08:58 | -7.37593 | 112.79469 | 8 ft | 0 kts | 9° |